createdAt,value
2018-03-08T00:00:00.874Z,75.60
2018-03-08T00:02:31.339Z,75.70
2018-03-08T00:04:58.949Z,75.60
2018-03-08T00:07:26.822Z,75.60
2018-03-08T00:09:54.503Z,75.80
2018-03-08T00:12:22.903Z,76.30
2018-03-08T00:14:50.600Z,76.20
2018-03-08T00:17:18.505Z,76.20
2018-03-08T00:19:46.102Z,76.50
2018-03-08T00:22:13.751Z,76.40
2018-03-08T00:24:41.373Z,76.10
2018-03-08T00:27:09.018Z,76.00
2018-03-08T00:29:36.642Z,76.10
2018-03-08T00:32:04.289Z,76.20
2018-03-08T00:34:32.716Z,76.40
2018-03-08T00:37:00.319Z,76.40
2018-03-08T00:39:28.746Z,76.60
2018-03-08T00:41:56.341Z,76.60
2018-03-08T00:44:23.927Z,76.80
2018-03-08T00:46:53.094Z,76.80
2018-03-08T00:49:20.700Z,76.80
2018-03-08T00:51:48.316Z,76.30
2018-03-08T00:54:15.959Z,76.70
2018-03-08T00:56:43.562Z,76.80
2018-03-08T00:59:11.226Z,76.60
2018-03-08T01:01:38.852Z,76.50
2018-03-08T01:04:06.499Z,76.40
2018-03-08T01:06:36.136Z,76.50
2018-03-08T01:09:05.496Z,76.40
2018-03-08T01:11:34.054Z,76.30
2018-03-08T01:14:01.650Z,76.30
2018-03-08T01:16:29.279Z,76.40
2018-03-08T01:18:56.927Z,76.30
2018-03-08T01:21:24.592Z,77.00
2018-03-08T01:23:52.261Z,76.20
2018-03-08T01:26:19.865Z,76.10
2018-03-08T01:28:47.510Z,76.20
2018-03-08T01:31:15.216Z,76.10
2018-03-08T01:33:43.732Z,76.30
2018-03-08T01:36:23.823Z,76.30
2018-03-08T01:38:54.385Z,76.20
2018-03-08T01:41:22.871Z,75.90
2018-03-08T01:43:51.353Z,75.90
2018-03-08T01:46:20.512Z,75.90
2018-03-08T01:48:49.746Z,76.10
2018-03-08T01:51:20.287Z,76.30
2018-03-08T01:53:49.727Z,76.30
2018-03-08T01:56:19.031Z,76.30
2018-03-08T01:58:48.780Z,76.80
2018-03-08T02:01:17.237Z,76.10
2018-03-08T02:03:45.747Z,76.10
2018-03-08T02:06:15.079Z,75.90
2018-03-08T02:08:44.294Z,75.50
2018-03-08T02:11:13.474Z,75.10
2018-03-08T02:13:43.667Z,74.80
2018-03-08T02:16:13.311Z,75.60
2018-03-08T02:18:43.124Z,74.90
2018-03-08T02:21:10.835Z,75.20
2018-03-08T02:23:40.669Z,74.80
2018-03-08T02:26:10.732Z,74.80
2018-03-08T02:28:40.447Z,74.70
2018-03-08T02:31:10.205Z,74.70
2018-03-08T02:33:39.565Z,74.50
2018-03-08T02:36:09.873Z,74.70
2018-03-08T02:38:38.858Z,74.40
2018-03-08T02:41:08.192Z,74.30
2018-03-08T02:43:37.112Z,74.30
2018-03-08T02:46:06.636Z,74.20
2018-03-08T02:48:36.130Z,74.20
2018-03-08T02:51:05.544Z,74.10
2018-03-08T02:53:34.667Z,73.90
2018-03-08T02:56:03.476Z,74.00
2018-03-08T02:58:33.576Z,73.90
2018-03-08T03:01:02.983Z,73.80
2018-03-08T03:03:32.751Z,73.60
2018-03-08T03:06:01.993Z,73.40
2018-03-08T03:08:32.115Z,73.30
2018-03-08T03:11:02.070Z,73.40
2018-03-08T03:13:32.729Z,73.50
2018-03-08T03:16:03.495Z,73.70
2018-03-08T03:18:33.612Z,73.70
2018-03-08T03:21:03.062Z,73.70
2018-03-08T03:23:32.037Z,73.70
2018-03-08T03:26:01.277Z,73.60
2018-03-08T03:28:30.471Z,73.30
2018-03-08T03:30:59.816Z,73.40
2018-03-08T03:33:29.133Z,73.20
2018-03-08T03:35:58.906Z,73.30
2018-03-08T03:38:30.043Z,72.90
2018-03-08T03:41:00.085Z,72.60
2018-03-08T03:43:29.620Z,72.60
2018-03-08T03:45:59.064Z,72.40
2018-03-08T03:48:29.411Z,72.10
2018-03-08T03:50:58.809Z,72.00
2018-03-08T03:53:28.229Z,72.10
2018-03-08T03:55:57.570Z,71.90
2018-03-08T03:58:26.967Z,71.90
2018-03-08T04:00:56.940Z,71.80
2018-03-08T04:03:25.999Z,71.90
2018-03-08T04:05:55.421Z,71.80
2018-03-08T04:08:25.671Z,72.00
2018-03-08T04:10:56.397Z,72.00
2018-03-08T04:13:24.922Z,71.90
2018-03-08T04:15:54.228Z,72.00
2018-03-08T04:18:23.305Z,72.10
2018-03-08T04:20:52.726Z,72.00
2018-03-08T04:23:22.120Z,72.10
2018-03-08T04:25:50.655Z,72.10
2018-03-08T04:28:20.438Z,72.20
2018-03-08T04:30:49.243Z,72.30
2018-03-08T04:33:18.832Z,72.40
2018-03-08T04:35:48.568Z,72.40
2018-03-08T04:38:18.683Z,72.40
2018-03-08T04:40:54.298Z,72.40
2018-03-08T04:43:23.370Z,72.40
2018-03-08T04:45:53.516Z,72.40
2018-03-08T04:48:24.634Z,72.60
2018-03-08T04:50:53.896Z,72.60
2018-03-08T04:53:23.077Z,72.70
2018-03-08T04:55:52.169Z,72.70
2018-03-08T04:58:21.686Z,72.70
2018-03-08T05:00:50.960Z,72.80
2018-03-08T05:03:20.127Z,72.90
2018-03-08T05:05:49.631Z,73.00
2018-03-08T05:08:19.025Z,72.80
2018-03-08T05:10:49.916Z,72.80
2018-03-08T05:13:19.444Z,72.70
2018-03-08T05:15:48.659Z,72.60
2018-03-08T05:18:18.177Z,72.60
2018-03-08T05:20:48.350Z,72.60
2018-03-08T05:23:18.537Z,72.80
2018-03-08T05:25:46.255Z,73.40
2018-03-08T05:28:17.212Z,72.80
2018-03-08T05:30:47.227Z,72.80
2018-03-08T05:33:16.242Z,72.90
2018-03-08T05:35:46.792Z,73.20
2018-03-08T05:38:18.552Z,74.80
2018-03-08T05:40:48.799Z,74.80
2018-03-08T05:43:16.567Z,75.60
2018-03-08T05:45:45.874Z,75.90
2018-03-08T05:48:16.149Z,76.60
2018-03-08T05:50:46.840Z,76.70
2018-03-08T05:53:16.754Z,76.90
2018-03-08T05:55:48.571Z,76.80
2018-03-08T05:58:18.121Z,77.00
2018-03-08T06:00:48.723Z,77.20
2018-03-08T06:03:18.204Z,77.10
2018-03-08T06:05:47.518Z,77.40
2018-03-08T06:08:15.971Z,77.20
2018-03-08T06:10:45.056Z,77.20
2018-03-08T06:13:13.990Z,77.20
2018-03-08T06:15:44.671Z,77.40
2018-03-08T06:18:12.663Z,77.40
2018-03-08T06:20:43.493Z,77.70
2018-03-08T06:23:12.474Z,77.70
2018-03-08T06:25:42.566Z,77.60
2018-03-08T06:28:10.258Z,77.60
2018-03-08T06:30:38.604Z,77.70
2018-03-08T06:33:08.378Z,77.40
2018-03-08T06:35:38.971Z,77.40
2018-03-08T06:38:08.597Z,77.30
2018-03-08T06:40:36.518Z,77.30
2018-03-08T06:43:06.002Z,77.30
2018-03-08T06:45:33.919Z,78.00
2018-03-08T06:48:04.735Z,77.00
2018-03-08T06:50:32.850Z,76.70
2018-03-08T06:53:02.871Z,76.30
2018-03-08T06:55:31.101Z,76.30
2018-03-08T06:58:00.012Z,75.80
2018-03-08T07:00:29.701Z,75.90
2018-03-08T07:02:57.812Z,75.90
2018-03-08T07:05:28.088Z,76.20
2018-03-08T07:07:57.146Z,76.10
2018-03-08T07:10:27.124Z,76.50
2018-03-08T07:12:54.951Z,76.50
2018-03-08T07:15:22.726Z,76.50
2018-03-08T07:17:53.068Z,76.50
2018-03-08T07:20:23.278Z,76.50
2018-03-08T07:22:53.868Z,76.60
2018-03-08T07:25:24.030Z,76.40
2018-03-08T07:27:53.903Z,76.40
2018-03-08T07:30:22.854Z,76.20
2018-03-08T07:32:51.507Z,76.30
2018-03-08T07:35:21.236Z,75.90
2018-03-08T07:37:50.595Z,75.80
2018-03-08T07:40:18.270Z,75.80
2018-03-08T07:42:59.682Z,76.10
2018-03-08T07:45:29.733Z,76.20
2018-03-08T07:47:59.838Z,76.20
2018-03-08T07:50:30.283Z,76.20
2018-03-08T07:53:04.577Z,76.10
2018-03-08T07:55:33.487Z,76.20
2018-03-08T07:58:03.530Z,76.40
2018-03-08T08:00:32.783Z,76.40
2018-03-08T08:03:03.062Z,76.70
2018-03-08T08:08:48.184Z,77.30
2018-03-08T08:11:18.015Z,78.10
2018-03-08T08:13:52.456Z,78.10
2018-03-08T08:16:22.031Z,78.30
2018-03-08T08:18:52.969Z,78.10
2018-03-08T08:21:23.927Z,78.10
2018-03-08T08:23:53.764Z,78.40
2018-03-08T08:26:24.123Z,78.30
2018-03-08T08:28:52.690Z,78.80
2018-03-08T08:31:22.206Z,78.80
2018-03-08T08:33:51.307Z,78.40
2018-03-08T08:36:21.790Z,78.80
2018-03-08T08:38:51.342Z,78.80
2018-03-08T08:41:20.441Z,78.70
2018-03-08T08:43:50.580Z,78.50
2018-03-08T08:46:18.342Z,78.40
2018-03-08T08:48:48.264Z,78.70
2018-03-08T08:51:17.357Z,78.70
2018-03-08T08:53:46.477Z,78.40
2018-03-08T08:56:17.330Z,78.20
2018-03-08T08:58:47.217Z,78.20
2018-03-08T09:01:16.650Z,78.10
2018-03-08T09:03:45.858Z,78.20
2018-03-08T09:06:15.362Z,78.10
2018-03-08T09:08:46.181Z,78.80
2018-03-08T09:11:15.649Z,78.30
2018-03-08T09:13:44.571Z,78.20
2018-03-08T09:16:14.459Z,78.40
2018-03-08T09:18:43.166Z,78.30
2018-03-08T09:21:12.949Z,78.60
2018-03-08T09:23:42.448Z,78.70
2018-03-08T09:26:13.320Z,79.00
2018-03-08T09:28:42.628Z,79.00
2018-03-08T09:31:14.298Z,79.20
2018-03-08T09:33:43.508Z,79.20
2018-03-08T09:36:11.160Z,79.10
2018-03-08T09:38:42.491Z,78.60
2018-03-08T09:41:12.054Z,78.80
2018-03-08T09:43:41.592Z,79.00
2018-03-08T09:46:10.999Z,79.20
2018-03-08T09:48:41.995Z,79.40
2018-03-08T09:51:13.221Z,79.40
2018-03-08T09:53:42.780Z,79.60
2018-03-08T09:56:12.712Z,79.60
2018-03-08T09:58:42.815Z,79.50
2018-03-08T10:01:12.237Z,79.70
2018-03-08T10:03:41.928Z,79.20
2018-03-08T10:06:11.845Z,79.80
2018-03-08T10:08:42.061Z,78.80
2018-03-08T10:11:12.814Z,78.70
2018-03-08T10:13:41.892Z,78.70
2018-03-08T10:16:12.084Z,78.80
2018-03-08T10:18:41.626Z,78.60
2018-03-08T10:21:11.345Z,78.40
2018-03-08T10:23:40.781Z,78.50
2018-03-08T10:26:10.147Z,78.80
2018-03-08T10:28:39.748Z,78.90
2018-03-08T10:31:11.011Z,78.40
2018-03-08T10:33:41.160Z,78.70
2018-03-08T10:36:10.971Z,78.30
2018-03-08T10:38:40.138Z,77.60
2018-03-08T10:41:10.163Z,77.90
2018-03-08T10:43:39.701Z,77.90
2018-03-08T10:46:09.200Z,77.70
2018-03-08T10:48:38.250Z,78.10
2018-03-08T10:51:08.437Z,78.20
2018-03-08T10:53:37.920Z,78.20
2018-03-08T10:56:08.092Z,78.50
2018-03-08T10:58:37.675Z,78.50
2018-03-08T11:01:06.953Z,78.50
2018-03-08T11:03:42.333Z,79.00
2018-03-08T11:06:17.526Z,78.60
2018-03-08T11:08:49.081Z,78.60
2018-03-08T11:11:19.485Z,78.60
2018-03-08T11:13:49.557Z,78.50
2018-03-08T11:16:17.456Z,78.50
2018-03-08T11:18:46.765Z,78.50
2018-03-08T11:21:16.523Z,78.70
2018-03-08T11:23:44.403Z,78.40
2018-03-08T11:26:12.577Z,78.40
2018-03-08T11:28:40.202Z,78.30
2018-03-08T11:31:09.420Z,77.80
2018-03-08T11:33:38.479Z,78.50
2018-03-08T11:36:06.244Z,77.90
2018-03-08T11:38:37.939Z,77.00
2018-03-08T11:41:07.518Z,77.00
2018-03-08T11:43:37.109Z,77.00
2018-03-08T11:46:06.647Z,76.40
2018-03-08T11:48:36.061Z,76.10
2018-03-08T11:51:05.538Z,75.50
2018-03-08T11:53:34.920Z,75.10
2018-03-08T11:56:08.463Z,75.00
2018-03-08T11:58:38.784Z,75.10
2018-03-08T12:01:08.369Z,75.00
2018-03-08T12:03:38.634Z,73.30
2018-03-08T12:06:07.657Z,73.30
2018-03-08T12:08:36.724Z,74.90
2018-03-08T12:11:06.604Z,74.60
2018-03-08T12:13:35.907Z,74.40
2018-03-08T12:16:04.965Z,74.30
2018-03-08T12:18:34.067Z,73.80
2018-03-08T12:21:03.830Z,73.90
2018-03-08T12:23:33.242Z,72.60
2018-03-08T12:26:03.686Z,71.30
2018-03-08T12:28:33.239Z,71.30
2018-03-08T12:31:02.525Z,70.80
2018-03-08T12:33:32.335Z,71.50
2018-03-08T12:36:01.772Z,71.20
2018-03-08T12:38:31.224Z,71.20
2018-03-08T12:41:00.770Z,70.30
2018-03-08T12:43:30.019Z,70.30
2018-03-08T12:46:00.974Z,69.80
2018-03-08T12:48:29.640Z,69.10
2018-03-08T12:50:59.125Z,68.90
2018-03-08T12:53:27.968Z,68.80
2018-03-08T12:55:57.422Z,67.40
2018-03-08T12:58:26.879Z,65.90
2018-03-08T13:00:56.183Z,65.10
2018-03-08T13:03:23.899Z,65.10
2018-03-08T13:05:53.974Z,64.00
2018-03-08T13:08:24.047Z,62.90
2018-03-08T13:10:53.608Z,62.90
2018-03-08T13:13:23.177Z,61.80
2018-03-08T13:15:53.015Z,58.10
2018-03-08T13:18:22.031Z,58.00
2018-03-08T13:20:51.668Z,57.90
2018-03-08T13:23:21.248Z,55.90
2018-03-08T13:25:50.744Z,53.90
2018-03-08T13:28:20.540Z,53.00
2018-03-08T13:30:50.444Z,50.60
2018-03-08T13:33:19.897Z,50.60
2018-03-08T13:35:49.666Z,49.10
2018-03-08T13:38:19.055Z,49.10
2018-03-08T13:40:48.681Z,50.30
2018-03-08T13:43:17.107Z,46.60
2018-03-08T13:45:46.303Z,46.90
2018-03-08T13:48:16.768Z,44.60
2018-03-08T13:50:44.772Z,44.60
2018-03-08T13:53:14.036Z,41.60
2018-03-08T13:55:42.828Z,41.60
2018-03-08T13:58:11.357Z,44.60
2018-03-08T14:00:40.213Z,46.70
2018-03-08T14:03:08.087Z,45.30
2018-03-08T14:05:37.641Z,45.00
2018-03-08T14:08:05.553Z,40.70
2018-03-08T14:10:35.622Z,39.50
2018-03-08T14:13:05.064Z,39.40
2018-03-08T14:15:34.508Z,37.90
2018-03-08T14:18:02.381Z,38.00
2018-03-08T14:20:31.321Z,36.80
2018-03-08T14:22:59.746Z,36.80
2018-03-08T14:25:28.232Z,36.30
2018-03-08T14:27:56.649Z,36.30
2018-03-08T14:30:24.287Z,36.20
2018-03-08T14:32:51.912Z,36.10
2018-03-08T14:35:20.288Z,37.10
2018-03-08T14:37:48.116Z,36.90
2018-03-08T14:40:15.729Z,39.20
2018-03-08T14:42:44.109Z,43.00
2018-03-08T14:45:12.515Z,44.10
2018-03-08T14:47:40.140Z,44.00
2018-03-08T14:50:08.534Z,45.20
2018-03-08T14:52:37.063Z,45.20
2018-03-08T14:55:04.832Z,45.20
2018-03-08T14:57:32.555Z,44.50
2018-03-08T15:00:00.166Z,44.20
2018-03-08T15:02:28.726Z,40.80
2018-03-08T15:04:56.976Z,40.90
2018-03-08T15:07:24.595Z,38.10
2018-03-08T15:09:52.222Z,35.80
2018-03-08T15:12:19.810Z,32.70
2018-03-08T15:14:47.472Z,31.80
2018-03-08T15:17:15.072Z,31.60
2018-03-08T15:19:43.416Z,32.50
2018-03-08T15:22:11.822Z,35.80
2018-03-08T15:24:39.448Z,35.70
2018-03-08T15:27:07.039Z,36.80
2018-03-08T15:29:34.757Z,37.60
2018-03-08T15:32:02.415Z,38.70
2018-03-08T15:34:30.005Z,39.60
2018-03-08T15:36:58.402Z,40.40
2018-03-08T15:39:26.045Z,40.40
2018-03-08T15:41:54.430Z,41.40
2018-03-08T15:44:22.859Z,41.90
2018-03-08T15:46:50.495Z,41.90
2018-03-08T15:49:18.155Z,42.10
2018-03-08T15:51:45.767Z,42.80
2018-03-08T15:54:14.107Z,43.20
2018-03-08T15:56:41.743Z,43.40
2018-03-08T15:59:10.037Z,43.80
2018-03-08T16:01:37.672Z,43.70
2018-03-08T16:04:05.323Z,44.40
2018-03-08T16:09:51.378Z,44.80
2018-03-08T16:12:18.971Z,45.00
2018-03-08T16:14:46.639Z,45.00
2018-03-08T16:17:14.354Z,46.20
2018-03-08T16:19:41.980Z,45.60
2018-03-08T16:22:10.397Z,46.20
2018-03-08T16:24:38.004Z,46.10
2018-03-08T16:27:06.405Z,46.60
2018-03-08T16:29:34.047Z,46.80
2018-03-08T16:32:02.403Z,47.70
2018-03-08T16:34:30.007Z,47.70
2018-03-08T16:36:57.647Z,47.60
2018-03-08T16:39:26.047Z,48.10
2018-03-08T16:41:53.648Z,48.10
2018-03-08T16:44:21.285Z,48.40
2018-03-08T16:46:48.907Z,48.40
2018-03-08T16:49:17.313Z,48.90
2018-03-08T16:51:45.496Z,48.90
2018-03-08T16:54:13.148Z,49.70
2018-03-08T16:56:41.745Z,49.40
2018-03-08T16:59:09.378Z,48.90
2018-03-08T17:01:37.063Z,49.10
2018-03-08T17:04:05.342Z,49.20
2018-03-08T17:06:33.584Z,49.40
2018-03-08T17:09:01.413Z,49.00
2018-03-08T17:11:29.073Z,49.10
2018-03-08T17:13:56.773Z,49.50
2018-03-08T17:16:24.462Z,50.10
2018-03-08T17:18:52.063Z,49.30
2018-03-08T17:21:20.440Z,49.30
2018-03-08T17:23:49.570Z,49.20
2018-03-08T17:26:17.374Z,49.20
2018-03-08T17:28:45.050Z,49.50
2018-03-08T17:31:12.709Z,49.80
2018-03-08T17:33:40.326Z,49.80
2018-03-08T17:36:07.916Z,50.20
2018-03-08T17:38:35.733Z,50.00
2018-03-08T17:41:04.526Z,50.30
2018-03-08T17:43:33.791Z,50.30
2018-03-08T17:46:01.398Z,50.60
2018-03-08T17:48:28.988Z,50.30
2018-03-08T17:50:56.730Z,50.60
2018-03-08T17:53:24.515Z,51.20
2018-03-08T17:55:52.268Z,50.90
2018-03-08T17:58:19.989Z,51.30
2018-03-08T18:00:47.788Z,51.80
2018-03-08T18:03:15.735Z,52.30
2018-03-08T18:05:43.482Z,52.70
2018-03-08T18:08:11.218Z,53.30
2018-03-08T18:10:38.954Z,53.60
2018-03-08T18:13:06.565Z,53.50
2018-03-08T18:15:35.259Z,54.30
2018-03-08T18:18:02.975Z,54.20
2018-03-08T18:20:30.567Z,54.70
2018-03-08T18:22:58.995Z,55.20
2018-03-08T18:25:26.582Z,55.20
2018-03-08T18:27:54.164Z,55.30
2018-03-08T18:30:22.562Z,56.10
2018-03-08T18:32:50.200Z,56.00
2018-03-08T18:35:18.593Z,55.80
2018-03-08T18:37:46.955Z,55.50
2018-03-08T18:40:15.343Z,55.70
2018-03-08T18:42:43.734Z,55.90
2018-03-08T18:45:11.338Z,55.90
2018-03-08T18:47:38.959Z,55.70
2018-03-08T18:50:07.744Z,55.90
2018-03-08T18:52:35.416Z,55.40
2018-03-08T18:55:03.041Z,55.60
2018-03-08T18:57:31.399Z,55.20
2018-03-08T18:59:59.054Z,55.10
2018-03-08T19:02:26.636Z,55.10
2018-03-08T19:04:55.061Z,56.30
2018-03-08T19:07:22.662Z,55.70
2018-03-08T19:09:51.725Z,56.30
2018-03-08T19:12:19.920Z,56.40
2018-03-08T19:14:47.632Z,56.40
2018-03-08T19:17:15.274Z,56.50
2018-03-08T19:19:43.648Z,56.10
2018-03-08T19:22:12.003Z,56.50
2018-03-08T19:24:39.622Z,56.40
2018-03-08T19:27:07.263Z,55.80
2018-03-08T19:29:34.842Z,56.10
2018-03-08T19:32:02.450Z,56.80
2018-03-08T19:34:30.110Z,56.00
2018-03-08T19:36:57.706Z,55.40
2018-03-08T19:39:25.360Z,55.40
2018-03-08T19:41:53.732Z,54.90
2018-03-08T19:44:22.157Z,54.70
2018-03-08T19:46:49.748Z,54.70
2018-03-08T19:49:17.369Z,54.40
2018-03-08T19:51:44.984Z,54.60
2018-03-08T19:54:13.387Z,54.60
2018-03-08T19:56:41.253Z,54.50
2018-03-08T19:59:08.841Z,54.80
2018-03-08T20:01:36.523Z,54.20
2018-03-08T20:04:04.928Z,54.10
2018-03-08T20:06:33.366Z,54.10
2018-03-08T20:09:00.951Z,54.70
2018-03-08T20:11:28.571Z,54.00
2018-03-08T20:13:56.186Z,53.80
2018-03-08T20:16:24.535Z,53.60
2018-03-08T20:18:52.180Z,53.60
2018-03-08T20:21:19.792Z,53.90
2018-03-08T20:23:48.175Z,54.20
2018-03-08T20:26:15.793Z,54.30
2018-03-08T20:28:43.390Z,54.20
2018-03-08T20:31:11.779Z,55.10
2018-03-08T20:33:39.366Z,55.10
2018-03-08T20:36:07.238Z,54.90
2018-03-08T20:38:34.908Z,55.30
2018-03-08T20:41:02.570Z,54.90
2018-03-08T20:43:31.063Z,55.60
2018-03-08T20:45:58.726Z,55.10
2018-03-08T20:48:26.332Z,55.50
2018-03-08T20:53:28.024Z,55.30
2018-03-08T20:55:55.618Z,55.50
2018-03-08T20:58:23.224Z,55.80
2018-03-08T21:00:50.923Z,55.80
2018-03-08T21:03:18.571Z,55.60
2018-03-08T21:05:46.339Z,55.40
2018-03-08T21:08:14.185Z,55.10
2018-03-08T21:10:41.862Z,55.10
2018-03-08T21:13:09.537Z,55.20
2018-03-08T21:15:38.838Z,55.10
2018-03-08T21:18:07.032Z,55.20
2018-03-08T21:20:34.667Z,55.40
2018-03-08T21:23:02.299Z,55.90
2018-03-08T21:25:29.890Z,55.40
2018-03-08T21:27:57.723Z,55.70
2018-03-08T21:30:25.319Z,55.70
2018-03-08T21:32:52.953Z,55.80
2018-03-08T21:35:20.559Z,56.20
2018-03-08T21:37:48.182Z,57.00
2018-03-08T21:40:15.779Z,57.50
2018-03-08T21:42:44.171Z,58.80
2018-03-08T21:45:12.534Z,59.60
2018-03-08T21:47:40.190Z,59.60
2018-03-08T21:50:07.822Z,60.00
2018-03-08T21:52:35.419Z,60.90
2018-03-08T21:55:03.779Z,61.80
2018-03-08T21:57:31.403Z,61.70
2018-03-08T21:59:59.036Z,62.10
2018-03-08T22:02:27.422Z,62.60
2018-03-08T22:04:55.078Z,62.80
2018-03-08T22:07:22.710Z,63.20
2018-03-08T22:09:51.162Z,64.40
2018-03-08T22:12:18.772Z,63.70
2018-03-08T22:14:47.174Z,63.80
2018-03-08T22:17:14.790Z,63.80
2018-03-08T22:19:43.143Z,65.00
2018-03-08T22:22:10.772Z,64.20
2018-03-08T22:24:38.371Z,65.00
2018-03-08T22:27:06.026Z,65.50
2018-03-08T22:29:33.618Z,65.70
2018-03-08T22:32:02.001Z,67.00
2018-03-08T22:34:30.622Z,67.10
2018-03-08T22:36:58.253Z,67.10
2018-03-08T22:39:25.855Z,67.20
2018-03-08T22:41:54.330Z,67.70
2018-03-08T22:44:21.954Z,68.30
2018-03-08T22:46:49.639Z,69.10
2018-03-08T22:49:18.222Z,69.40
2018-03-08T22:51:46.023Z,69.60
2018-03-08T22:54:13.617Z,70.90
2018-03-08T22:56:42.008Z,72.30
2018-03-08T22:59:09.590Z,73.00
2018-03-08T23:04:53.999Z,74.80
2018-03-08T23:07:22.253Z,76.50
2018-03-08T23:09:49.843Z,78.10
2018-03-08T23:12:17.471Z,80.40
2018-03-08T23:14:45.059Z,81.50
2018-03-08T23:17:12.678Z,80.60
2018-03-08T23:19:40.419Z,81.70
2018-03-08T23:22:08.004Z,82.20
2018-03-08T23:24:35.642Z,83.00
2018-03-08T23:27:03.221Z,83.40
2018-03-08T23:29:30.806Z,83.80
2018-03-08T23:31:58.466Z,84.00
2018-03-08T23:34:26.059Z,84.40
2018-03-08T23:36:53.696Z,84.50
2018-03-08T23:39:22.862Z,84.90
2018-03-08T23:41:50.467Z,84.90
2018-03-08T23:44:18.834Z,85.60
2018-03-08T23:46:47.275Z,85.50
2018-03-08T23:49:14.891Z,85.50
2018-03-08T23:51:44.340Z,86.00
2018-03-08T23:54:11.961Z,86.00
2018-03-08T23:56:39.636Z,86.10
2018-03-08T23:59:07.304Z,86.40
